sensor_id;sensor_type;location;lat;lon;timestamp;P1;durP1;ratioP1;P2;durP2;ratioP2
14169;SDS011;63889;50.596;8.690;2023-11-21T00:02:17;11.13;;;4.55;;
14169;SDS011;63889;50.596;8.690;2023-11-21T00:04:43;18.67;;;6.00;;
14169;SDS011;63889;50.596;8.690;2023-11-21T00:07:08;10.23;;;4.82;;
14169;SDS011;63889;50.596;8.690;2023-11-21T00:09:34;12.98;;;4.70;;
14169;SDS011;63889;50.596;8.690;2023-11-21T00:12:01;16.60;;;5.35;;
14169;SDS011;63889;50.596;8.690;2023-11-21T00:14:27;10.43;;;4.80;;
14169;SDS011;63889;50.596;8.690;2023-11-21T00:16:53;12.52;;;4.80;;
14169;SDS011;63889;50.596;8.690;2023-11-21T00:19:18;12.63;;;4.10;;
14169;SDS011;63889;50.596;8.690;2023-11-21T00:21:44;11.13;;;4.45;;
14169;SDS011;63889;50.596;8.690;2023-11-21T00:24:10;17.08;;;4.90;;
14169;SDS011;63889;50.596;8.690;2023-11-21T00:26:38;13.63;;;4.40;;
14169;SDS011;63889;50.596;8.690;2023-11-21T00:29:04;8.95;;;4.80;;
14169;SDS011;63889;50.596;8.690;2023-11-21T00:31:33;10.55;;;5.00;;
14169;SDS011;63889;50.596;8.690;2023-11-21T00:34:02;14.60;;;5.20;;
14169;SDS011;63889;50.596;8.690;2023-11-21T00:36:28;13.57;;;4.88;;
14169;SDS011;63889;50.596;8.690;2023-11-21T00:38:54;10.93;;;5.18;;
14169;SDS011;63889;50.596;8.690;2023-11-21T00:41:21;16.67;;;6.78;;
14169;SDS011;63889;50.596;8.690;2023-11-21T00:43:46;15.75;;;6.97;;
14169;SDS011;63889;50.596;8.690;2023-11-21T00:46:12;12.98;;;6.45;;
14169;SDS011;63889;50.596;8.690;2023-11-21T00:48:38;14.18;;;6.25;;
14169;SDS011;63889;50.596;8.690;2023-11-21T00:51:04;20.67;;;6.65;;
14169;SDS011;63889;50.596;8.690;2023-11-21T00:53:31;16.55;;;7.35;;
14169;SDS011;63889;50.596;8.690;2023-11-21T00:55:56;18.83;;;7.60;;
14169;SDS011;63889;50.596;8.690;2023-11-21T00:58:25;17.83;;;7.72;;
14169;SDS011;63889;50.596;8.690;2023-11-21T01:00:51;27.08;;;9.85;;
14169;SDS011;63889;50.596;8.690;2023-11-21T01:03:17;18.63;;;9.10;;
14169;SDS011;63889;50.596;8.690;2023-11-21T01:05:43;18.80;;;8.18;;
14169;SDS011;63889;50.596;8.690;2023-11-21T01:08:09;25.98;;;9.20;;
14169;SDS011;63889;50.596;8.690;2023-11-21T01:10:35;18.80;;;9.20;;
14169;SDS011;63889;50.596;8.690;2023-11-21T01:13:01;22.38;;;9.80;;
14169;SDS011;63889;50.596;8.690;2023-11-21T01:15:26;21.83;;;8.63;;
14169;SDS011;63889;50.596;8.690;2023-11-21T01:17:52;21.60;;;9.45;;
14169;SDS011;63889;50.596;8.690;2023-11-21T01:20:18;29.83;;;10.15;;
14169;SDS011;63889;50.596;8.690;2023-11-21T01:22:43;28.17;;;10.43;;
14169;SDS011;63889;50.596;8.690;2023-11-21T01:25:09;22.15;;;9.45;;
14169;SDS011;63889;50.596;8.690;2023-11-21T01:27:35;20.65;;;9.38;;
14169;SDS011;63889;50.596;8.690;2023-11-21T01:30:02;23.23;;;10.07;;
14169;SDS011;63889;50.596;8.690;2023-11-21T01:32:28;23.95;;;9.07;;
14169;SDS011;63889;50.596;8.690;2023-11-21T01:34:53;24.25;;;10.70;;
14169;SDS011;63889;50.596;8.690;2023-11-21T01:37:20;24.10;;;9.75;;
14169;SDS011;63889;50.596;8.690;2023-11-21T01:39:46;22.13;;;9.90;;
14169;SDS011;63889;50.596;8.690;2023-11-21T01:42:12;22.95;;;10.68;;
14169;SDS011;63889;50.596;8.690;2023-11-21T01:44:38;22.17;;;9.38;;
14169;SDS011;63889;50.596;8.690;2023-11-21T01:47:07;24.95;;;9.30;;
14169;SDS011;63889;50.596;8.690;2023-11-21T01:49:34;23.75;;;10.10;;
14169;SDS011;63889;50.596;8.690;2023-11-21T01:52:00;24.65;;;9.60;;
14169;SDS011;63889;50.596;8.690;2023-11-21T01:54:26;22.35;;;10.27;;
14169;SDS011;63889;50.596;8.690;2023-11-21T01:56:56;23.80;;;9.68;;
14169;SDS011;63889;50.596;8.690;2023-11-21T01:59:27;18.25;;;8.90;;
14169;SDS011;63889;50.596;8.690;2023-11-21T02:02:02;17.92;;;8.93;;
14169;SDS011;63889;50.596;8.690;2023-11-21T02:04:31;18.08;;;8.43;;
14169;SDS011;63889;50.596;8.690;2023-11-21T02:07:01;23.43;;;8.90;;
14169;SDS011;63889;50.596;8.690;2023-11-21T02:09:32;15.70;;;7.80;;
14169;SDS011;63889;50.596;8.690;2023-11-21T02:12:03;21.55;;;8.30;;
14169;SDS011;63889;50.596;8.690;2023-11-21T02:14:29;18.10;;;8.57;;
14169;SDS011;63889;50.596;8.690;2023-11-21T02:16:55;18.83;;;8.30;;
14169;SDS011;63889;50.596;8.690;2023-11-21T02:19:22;19.70;;;8.90;;
14169;SDS011;63889;50.596;8.690;2023-11-21T02:21:50;24.50;;;9.18;;
14169;SDS011;63889;50.596;8.690;2023-11-21T02:24:23;24.42;;;9.23;;
14169;SDS011;63889;50.596;8.690;2023-11-21T02:26:49;19.75;;;8.52;;
14169;SDS011;63889;50.596;8.690;2023-11-21T02:29:18;24.50;;;9.63;;
14169;SDS011;63889;50.596;8.690;2023-11-21T02:31:47;19.90;;;8.90;;
14169;SDS011;63889;50.596;8.690;2023-11-21T02:34:13;25.00;;;9.52;;
14169;SDS011;63889;50.596;8.690;2023-11-21T02:36:40;23.00;;;8.98;;
14169;SDS011;63889;50.596;8.690;2023-11-21T02:39:05;21.75;;;9.93;;
14169;SDS011;63889;50.596;8.690;2023-11-21T02:41:32;25.08;;;8.65;;
14169;SDS011;63889;50.596;8.690;2023-11-21T02:43:59;23.15;;;8.85;;
14169;SDS011;63889;50.596;8.690;2023-11-21T02:46:25;21.42;;;8.50;;
14169;SDS011;63889;50.596;8.690;2023-11-21T02:48:51;19.10;;;8.27;;
14169;SDS011;63889;50.596;8.690;2023-11-21T02:51:18;33.63;;;9.18;;
14169;SDS011;63889;50.596;8.690;2023-11-21T02:53:44;20.10;;;8.10;;
14169;SDS011;63889;50.596;8.690;2023-11-21T02:56:11;25.55;;;8.25;;
14169;SDS011;63889;50.596;8.690;2023-11-21T02:58:37;31.63;;;9.35;;
14169;SDS011;63889;50.596;8.690;2023-11-21T03:01:03;26.65;;;8.90;;
14169;SDS011;63889;50.596;8.690;2023-11-21T03:03:33;25.60;;;10.25;;
14169;SDS011;63889;50.596;8.690;2023-11-21T03:05:58;21.63;;;10.02;;
14169;SDS011;63889;50.596;8.690;2023-11-21T03:08:24;25.75;;;10.48;;
14169;SDS011;63889;50.596;8.690;2023-11-21T03:10:50;26.00;;;10.18;;
14169;SDS011;63889;50.596;8.690;2023-11-21T03:13:15;34.13;;;10.80;;
14169;SDS011;63889;50.596;8.690;2023-11-21T03:15:41;25.45;;;10.18;;
14169;SDS011;63889;50.596;8.690;2023-11-21T03:18:07;27.38;;;10.85;;
14169;SDS011;63889;50.596;8.690;2023-11-21T03:20:33;30.73;;;9.70;;
14169;SDS011;63889;50.596;8.690;2023-11-21T03:22:59;33.35;;;10.73;;
14169;SDS011;63889;50.596;8.690;2023-11-21T03:25:25;31.10;;;10.35;;
14169;SDS011;63889;50.596;8.690;2023-11-21T03:27:50;31.48;;;10.43;;
14169;SDS011;63889;50.596;8.690;2023-11-21T03:30:16;30.35;;;10.27;;
14169;SDS011;63889;50.596;8.690;2023-11-21T03:32:41;29.05;;;10.90;;
14169;SDS011;63889;50.596;8.690;2023-11-21T03:35:07;36.78;;;12.18;;
14169;SDS011;63889;50.596;8.690;2023-11-21T03:37:33;31.08;;;11.43;;
14169;SDS011;63889;50.596;8.690;2023-11-21T03:39:58;36.85;;;13.20;;
14169;SDS011;63889;50.596;8.690;2023-11-21T03:42:24;37.05;;;12.43;;
14169;SDS011;63889;50.596;8.690;2023-11-21T03:44:52;38.58;;;11.30;;
14169;SDS011;63889;50.596;8.690;2023-11-21T03:47:18;39.75;;;12.30;;
14169;SDS011;63889;50.596;8.690;2023-11-21T03:49:44;42.00;;;13.13;;
14169;SDS011;63889;50.596;8.690;2023-11-21T03:52:10;41.15;;;12.25;;
14169;SDS011;63889;50.596;8.690;2023-11-21T03:54:36;35.50;;;11.60;;
14169;SDS011;63889;50.596;8.690;2023-11-21T03:57:02;33.38;;;12.35;;
14169;SDS011;63889;50.596;8.690;2023-11-21T03:59:28;39.70;;;12.90;;
14169;SDS011;63889;50.596;8.690;2023-11-21T04:01:55;31.00;;;10.68;;
14169;SDS011;63889;50.596;8.690;2023-11-21T04:04:22;34.03;;;11.55;;
14169;SDS011;63889;50.596;8.690;2023-11-21T04:06:47;35.75;;;12.43;;
14169;SDS011;63889;50.596;8.690;2023-11-21T04:09:13;35.55;;;11.57;;
14169;SDS011;63889;50.596;8.690;2023-11-21T04:11:38;34.10;;;11.30;;
14169;SDS011;63889;50.596;8.690;2023-11-21T04:14:04;40.88;;;10.80;;
14169;SDS011;63889;50.596;8.690;2023-11-21T04:16:29;36.17;;;11.57;;
14169;SDS011;63889;50.596;8.690;2023-11-21T04:18:55;42.45;;;12.02;;
14169;SDS011;63889;50.596;8.690;2023-11-21T04:21:22;38.33;;;11.45;;
14169;SDS011;63889;50.596;8.690;2023-11-21T04:23:49;44.70;;;12.60;;
14169;SDS011;63889;50.596;8.690;2023-11-21T04:26:14;36.45;;;11.80;;
14169;SDS011;63889;50.596;8.690;2023-11-21T04:28:40;39.95;;;12.73;;
14169;SDS011;63889;50.596;8.690;2023-11-21T04:31:05;52.28;;;13.32;;
14169;SDS011;63889;50.596;8.690;2023-11-21T04:33:32;42.80;;;12.82;;
14169;SDS011;63889;50.596;8.690;2023-11-21T04:35:57;46.38;;;12.32;;
14169;SDS011;63889;50.596;8.690;2023-11-21T04:38:23;44.97;;;12.35;;
14169;SDS011;63889;50.596;8.690;2023-11-21T04:40:48;48.28;;;13.88;;
14169;SDS011;63889;50.596;8.690;2023-11-21T04:43:14;53.40;;;14.60;;
14169;SDS011;63889;50.596;8.690;2023-11-21T04:45:39;44.72;;;13.38;;
14169;SDS011;63889;50.596;8.690;2023-11-21T04:48:06;47.65;;;12.70;;
14169;SDS011;63889;50.596;8.690;2023-11-21T04:50:33;49.40;;;12.45;;
14169;SDS011;63889;50.596;8.690;2023-11-21T04:52:59;49.28;;;12.13;;
14169;SDS011;63889;50.596;8.690;2023-11-21T04:55:24;49.35;;;13.15;;
14169;SDS011;63889;50.596;8.690;2023-11-21T04:57:53;51.30;;;13.13;;
14169;SDS011;63889;50.596;8.690;2023-11-21T05:00:18;57.20;;;13.32;;
14169;SDS011;63889;50.596;8.690;2023-11-21T05:02:44;48.75;;;11.00;;
14169;SDS011;63889;50.596;8.690;2023-11-21T05:05:10;42.22;;;11.00;;
14169;SDS011;63889;50.596;8.690;2023-11-21T05:07:36;46.80;;;11.30;;
14169;SDS011;63889;50.596;8.690;2023-11-21T05:10:02;41.30;;;10.73;;
14169;SDS011;63889;50.596;8.690;2023-11-21T05:12:32;43.17;;;11.75;;
14169;SDS011;63889;50.596;8.690;2023-11-21T05:15:02;38.20;;;11.27;;
14169;SDS011;63889;50.596;8.690;2023-11-21T05:17:32;35.13;;;11.07;;
14169;SDS011;63889;50.596;8.690;2023-11-21T05:19:59;37.45;;;10.57;;
14169;SDS011;63889;50.596;8.690;2023-11-21T05:22:28;36.75;;;10.52;;
14169;SDS011;63889;50.596;8.690;2023-11-21T05:24:54;33.88;;;9.68;;
14169;SDS011;63889;50.596;8.690;2023-11-21T05:27:19;33.42;;;9.90;;
14169;SDS011;63889;50.596;8.690;2023-11-21T05:29:45;35.03;;;9.82;;
14169;SDS011;63889;50.596;8.690;2023-11-21T05:32:10;38.22;;;10.63;;
14169;SDS011;63889;50.596;8.690;2023-11-21T05:34:36;42.42;;;10.10;;
14169;SDS011;63889;50.596;8.690;2023-11-21T05:37:02;31.70;;;9.90;;
14169;SDS011;63889;50.596;8.690;2023-11-21T05:39:27;39.20;;;10.25;;
14169;SDS011;63889;50.596;8.690;2023-11-21T05:41:53;31.05;;;10.13;;
14169;SDS011;63889;50.596;8.690;2023-11-21T05:44:18;26.65;;;9.52;;
14169;SDS011;63889;50.596;8.690;2023-11-21T05:46:44;31.20;;;10.05;;
14169;SDS011;63889;50.596;8.690;2023-11-21T05:49:10;27.30;;;9.05;;
14169;SDS011;63889;50.596;8.690;2023-11-21T05:51:36;29.20;;;9.55;;
14169;SDS011;63889;50.596;8.690;2023-11-21T05:54:03;27.10;;;9.10;;
14169;SDS011;63889;50.596;8.690;2023-11-21T05:56:29;27.40;;;9.15;;
14169;SDS011;63889;50.596;8.690;2023-11-21T05:58:54;28.13;;;9.07;;
14169;SDS011;63889;50.596;8.690;2023-11-21T06:01:20;23.27;;;8.32;;
14169;SDS011;63889;50.596;8.690;2023-11-21T06:03:46;26.73;;;8.90;;
14169;SDS011;63889;50.596;8.690;2023-11-21T06:06:11;22.30;;;8.95;;
14169;SDS011;63889;50.596;8.690;2023-11-21T06:08:37;28.40;;;8.27;;
14169;SDS011;63889;50.596;8.690;2023-11-21T06:11:02;19.25;;;7.65;;
14169;SDS011;63889;50.596;8.690;2023-11-21T06:13:28;23.25;;;8.00;;
14169;SDS011;63889;50.596;8.690;2023-11-21T06:15:53;23.40;;;8.23;;
14169;SDS011;63889;50.596;8.690;2023-11-21T06:18:20;19.55;;;6.65;;
14169;SDS011;63889;50.596;8.690;2023-11-21T06:20:45;24.58;;;7.88;;
14169;SDS011;63889;50.596;8.690;2023-11-21T06:23:11;21.55;;;8.20;;
14169;SDS011;63889;50.596;8.690;2023-11-21T06:25:37;23.17;;;8.25;;
14169;SDS011;63889;50.596;8.690;2023-11-21T06:28:02;24.73;;;8.48;;
14169;SDS011;63889;50.596;8.690;2023-11-21T06:30:28;25.95;;;7.70;;
14169;SDS011;63889;50.596;8.690;2023-11-21T06:32:54;23.73;;;8.38;;
14169;SDS011;63889;50.596;8.690;2023-11-21T06:35:21;24.20;;;7.05;;
14169;SDS011;63889;50.596;8.690;2023-11-21T06:37:46;23.63;;;7.63;;
14169;SDS011;63889;50.596;8.690;2023-11-21T06:40:12;24.00;;;7.88;;
14169;SDS011;63889;50.596;8.690;2023-11-21T06:42:40;25.52;;;8.63;;
14169;SDS011;63889;50.596;8.690;2023-11-21T06:45:06;22.27;;;8.50;;
14169;SDS011;63889;50.596;8.690;2023-11-21T06:47:32;23.15;;;7.47;;
14169;SDS011;63889;50.596;8.690;2023-11-21T06:49:58;21.30;;;8.07;;
14169;SDS011;63889;50.596;8.690;2023-11-21T06:52:24;23.48;;;7.75;;
14169;SDS011;63889;50.596;8.690;2023-11-21T06:54:49;19.73;;;7.68;;
14169;SDS011;63889;50.596;8.690;2023-11-21T06:57:15;21.88;;;8.23;;
14169;SDS011;63889;50.596;8.690;2023-11-21T06:59:41;20.15;;;7.35;;
14169;SDS011;63889;50.596;8.690;2023-11-21T07:02:06;20.90;;;8.38;;
14169;SDS011;63889;50.596;8.690;2023-11-21T07:04:33;25.58;;;8.05;;
14169;SDS011;63889;50.596;8.690;2023-11-21T07:06:58;18.63;;;6.72;;
14169;SDS011;63889;50.596;8.690;2023-11-21T07:09:24;17.80;;;8.13;;
14169;SDS011;63889;50.596;8.690;2023-11-21T07:11:51;14.45;;;6.68;;
14169;SDS011;63889;50.596;8.690;2023-11-21T07:14:17;14.23;;;5.78;;
14169;SDS011;63889;50.596;8.690;2023-11-21T07:16:44;18.75;;;7.57;;
14169;SDS011;63889;50.596;8.690;2023-11-21T07:19:10;15.43;;;6.78;;
14169;SDS011;63889;50.596;8.690;2023-11-21T07:21:37;18.80;;;6.20;;
14169;SDS011;63889;50.596;8.690;2023-11-21T07:24:04;17.38;;;6.90;;
14169;SDS011;63889;50.596;8.690;2023-11-21T07:26:31;17.65;;;6.80;;
14169;SDS011;63889;50.596;8.690;2023-11-21T07:28:58;17.50;;;7.18;;
14169;SDS011;63889;50.596;8.690;2023-11-21T07:31:24;13.20;;;5.97;;
14169;SDS011;63889;50.596;8.690;2023-11-21T07:33:50;15.00;;;6.55;;
14169;SDS011;63889;50.596;8.690;2023-11-21T07:36:16;18.50;;;6.32;;
14169;SDS011;63889;50.596;8.690;2023-11-21T07:38:48;14.15;;;5.82;;
14169;SDS011;63889;50.596;8.690;2023-11-21T07:41:14;16.92;;;6.63;;
14169;SDS011;63889;50.596;8.690;2023-11-21T07:43:43;21.08;;;7.18;;
14169;SDS011;63889;50.596;8.690;2023-11-21T07:46:11;15.45;;;5.95;;
14169;SDS011;63889;50.596;8.690;2023-11-21T07:48:37;13.05;;;6.38;;
14169;SDS011;63889;50.596;8.690;2023-11-21T07:51:04;15.27;;;6.20;;
14169;SDS011;63889;50.596;8.690;2023-11-21T07:53:30;19.77;;;6.07;;
14169;SDS011;63889;50.596;8.690;2023-11-21T07:56:02;17.70;;;6.40;;
14169;SDS011;63889;50.596;8.690;2023-11-21T07:58:28;14.13;;;5.70;;
14169;SDS011;63889;50.596;8.690;2023-11-21T08:00:54;14.95;;;6.60;;
14169;SDS011;63889;50.596;8.690;2023-11-21T08:03:19;20.13;;;7.57;;
14169;SDS011;63889;50.596;8.690;2023-11-21T08:05:46;14.20;;;6.57;;
14169;SDS011;63889;50.596;8.690;2023-11-21T08:08:11;16.38;;;6.80;;
14169;SDS011;63889;50.596;8.690;2023-11-21T08:10:37;19.45;;;7.07;;
14169;SDS011;63889;50.596;8.690;2023-11-21T08:13:03;19.98;;;7.13;;
14169;SDS011;63889;50.596;8.690;2023-11-21T08:15:29;15.35;;;7.20;;
14169;SDS011;63889;50.596;8.690;2023-11-21T08:17:57;18.80;;;6.78;;
14169;SDS011;63889;50.596;8.690;2023-11-21T08:20:23;20.33;;;7.18;;
14169;SDS011;63889;50.596;8.690;2023-11-21T08:22:50;18.15;;;6.85;;
14169;SDS011;63889;50.596;8.690;2023-11-21T08:25:16;21.38;;;7.68;;
14169;SDS011;63889;50.596;8.690;2023-11-21T08:27:44;15.90;;;7.63;;
14169;SDS011;63889;50.596;8.690;2023-11-21T08:30:10;18.92;;;7.15;;
14169;SDS011;63889;50.596;8.690;2023-11-21T08:32:37;21.83;;;7.68;;
14169;SDS011;63889;50.596;8.690;2023-11-21T08:35:03;18.17;;;7.38;;
14169;SDS011;63889;50.596;8.690;2023-11-21T08:37:29;15.15;;;6.30;;
14169;SDS011;63889;50.596;8.690;2023-11-21T08:39:57;15.65;;;6.85;;
14169;SDS011;63889;50.596;8.690;2023-11-21T08:42:24;14.70;;;5.47;;
14169;SDS011;63889;50.596;8.690;2023-11-21T08:44:50;16.35;;;6.78;;
14169;SDS011;63889;50.596;8.690;2023-11-21T08:47:16;15.52;;;6.60;;
14169;SDS011;63889;50.596;8.690;2023-11-21T08:49:41;14.55;;;6.55;;
14169;SDS011;63889;50.596;8.690;2023-11-21T08:52:07;17.73;;;6.68;;
14169;SDS011;63889;50.596;8.690;2023-11-21T08:54:33;17.05;;;7.97;;
14169;SDS011;63889;50.596;8.690;2023-11-21T08:56:59;23.08;;;8.20;;
14169;SDS011;63889;50.596;8.690;2023-11-21T08:59:25;24.65;;;9.45;;
14169;SDS011;63889;50.596;8.690;2023-11-21T09:01:52;24.23;;;8.52;;
14169;SDS011;63889;50.596;8.690;2023-11-21T09:04:17;22.77;;;8.40;;
14169;SDS011;63889;50.596;8.690;2023-11-21T09:06:43;19.13;;;8.05;;
14169;SDS011;63889;50.596;8.690;2023-11-21T09:09:08;17.67;;;8.35;;
14169;SDS011;63889;50.596;8.690;2023-11-21T09:11:35;24.58;;;10.00;;
14169;SDS011;63889;50.596;8.690;2023-11-21T09:14:01;20.35;;;8.18;;
14169;SDS011;63889;50.596;8.690;2023-11-21T09:16:30;17.40;;;8.80;;
14169;SDS011;63889;50.596;8.690;2023-11-21T09:18:56;18.88;;;8.18;;
14169;SDS011;63889;50.596;8.690;2023-11-21T09:21:22;19.13;;;8.50;;
14169;SDS011;63889;50.596;8.690;2023-11-21T09:23:49;20.70;;;9.43;;
14169;SDS011;63889;50.596;8.690;2023-11-21T09:26:14;22.42;;;8.07;;
14169;SDS011;63889;50.596;8.690;2023-11-21T09:28:41;20.83;;;7.95;;
14169;SDS011;63889;50.596;8.690;2023-11-21T09:31:11;18.05;;;7.22;;
14169;SDS011;63889;50.596;8.690;2023-11-21T09:33:37;20.60;;;7.43;;
14169;SDS011;63889;50.596;8.690;2023-11-21T09:36:03;17.85;;;7.57;;
14169;SDS011;63889;50.596;8.690;2023-11-21T09:38:30;19.42;;;7.20;;
14169;SDS011;63889;50.596;8.690;2023-11-21T09:40:55;20.13;;;7.68;;
14169;SDS011;63889;50.596;8.690;2023-11-21T09:43:23;18.65;;;7.50;;
14169;SDS011;63889;50.596;8.690;2023-11-21T09:45:54;19.05;;;6.35;;
14169;SDS011;63889;50.596;8.690;2023-11-21T09:48:27;19.70;;;6.30;;
14169;SDS011;63889;50.596;8.690;2023-11-21T09:50:54;17.35;;;7.00;;
14169;SDS011;63889;50.596;8.690;2023-11-21T09:53:20;15.55;;;6.55;;
14169;SDS011;63889;50.596;8.690;2023-11-21T09:55:49;16.10;;;6.68;;
14169;SDS011;63889;50.596;8.690;2023-11-21T09:58:17;13.98;;;6.90;;
14169;SDS011;63889;50.596;8.690;2023-11-21T10:00:45;18.52;;;7.05;;
14169;SDS011;63889;50.596;8.690;2023-11-21T10:03:11;20.55;;;7.72;;
14169;SDS011;63889;50.596;8.690;2023-11-21T10:05:38;13.82;;;6.95;;
14169;SDS011;63889;50.596;8.690;2023-11-21T10:08:07;17.92;;;7.15;;
14169;SDS011;63889;50.596;8.690;2023-11-21T10:10:34;13.88;;;7.13;;
14169;SDS011;63889;50.596;8.690;2023-11-21T10:13:02;14.40;;;5.25;;
14169;SDS011;63889;50.596;8.690;2023-11-21T10:15:31;10.45;;;5.28;;
14169;SDS011;63889;50.596;8.690;2023-11-21T10:18:00;12.40;;;5.05;;
14169;SDS011;63889;50.596;8.690;2023-11-21T10:20:31;14.35;;;6.28;;
14169;SDS011;63889;50.596;8.690;2023-11-21T10:22:58;14.15;;;5.47;;
14169;SDS011;63889;50.596;8.690;2023-11-21T10:25:27;10.18;;;5.40;;
14169;SDS011;63889;50.596;8.690;2023-11-21T10:27:57;8.43;;;4.75;;
14169;SDS011;63889;50.596;8.690;2023-11-21T10:30:35;8.23;;;4.72;;
14169;SDS011;63889;50.596;8.690;2023-11-21T10:33:02;13.90;;;4.88;;
14169;SDS011;63889;50.596;8.690;2023-11-21T10:38:15;11.13;;;4.97;;
14169;SDS011;63889;50.596;8.690;2023-11-21T10:40:46;9.68;;;5.63;;
14169;SDS011;63889;50.596;8.690;2023-11-21T10:43:13;15.63;;;5.35;;
14169;SDS011;63889;50.596;8.690;2023-11-21T10:45:40;10.52;;;5.32;;
14169;SDS011;63889;50.596;8.690;2023-11-21T10:48:07;11.48;;;4.90;;
14169;SDS011;63889;50.596;8.690;2023-11-21T10:50:36;11.40;;;5.28;;
14169;SDS011;63889;50.596;8.690;2023-11-21T10:53:02;15.77;;;5.32;;
14169;SDS011;63889;50.596;8.690;2023-11-21T10:55:29;15.52;;;5.07;;
14169;SDS011;63889;50.596;8.690;2023-11-21T10:57:57;17.95;;;7.63;;
14169;SDS011;63889;50.596;8.690;2023-11-21T11:00:25;10.93;;;4.88;;
14169;SDS011;63889;50.596;8.690;2023-11-21T11:02:52;12.55;;;5.60;;
14169;SDS011;63889;50.596;8.690;2023-11-21T11:05:22;10.70;;;4.80;;
14169;SDS011;63889;50.596;8.690;2023-11-21T11:07:51;10.68;;;5.10;;
14169;SDS011;63889;50.596;8.690;2023-11-21T11:10:25;9.40;;;5.18;;
14169;SDS011;63889;50.596;8.690;2023-11-21T11:12:52;11.68;;;5.30;;
14169;SDS011;63889;50.596;8.690;2023-11-21T11:15:22;12.68;;;4.90;;
14169;SDS011;63889;50.596;8.690;2023-11-21T11:17:49;15.07;;;6.28;;
14169;SDS011;63889;50.596;8.690;2023-11-21T11:20:15;11.90;;;5.50;;
14169;SDS011;63889;50.596;8.690;2023-11-21T11:38:45;13.80;;;4.95;;
14169;SDS011;63889;50.596;8.690;2023-11-21T11:41:11;15.73;;;6.00;;
14169;SDS011;63889;50.596;8.690;2023-11-21T11:43:37;13.95;;;5.28;;
14169;SDS011;63889;50.596;8.690;2023-11-21T11:46:09;10.13;;;4.95;;
14169;SDS011;63889;50.596;8.690;2023-11-21T11:48:38;11.88;;;5.70;;
14169;SDS011;63889;50.596;8.690;2023-11-21T11:51:14;16.70;;;5.72;;
14169;SDS011;63889;50.596;8.690;2023-11-21T11:53:42;16.48;;;5.70;;
14169;SDS011;63889;50.596;8.690;2023-11-21T11:58:53;22.45;;;7.10;;
14169;SDS011;63889;50.596;8.690;2023-11-21T12:01:20;14.70;;;6.30;;
14169;SDS011;63889;50.596;8.690;2023-11-21T12:06:48;15.65;;;6.55;;
14169;SDS011;63889;50.596;8.690;2023-11-21T12:09:18;14.65;;;6.65;;
14169;SDS011;63889;50.596;8.690;2023-11-21T12:11:44;17.10;;;6.32;;
14169;SDS011;63889;50.596;8.690;2023-11-21T12:14:11;15.95;;;6.57;;
14169;SDS011;63889;50.596;8.690;2023-11-21T12:16:38;15.80;;;6.35;;
14169;SDS011;63889;50.596;8.690;2023-11-21T12:19:04;13.75;;;6.28;;
14169;SDS011;63889;50.596;8.690;2023-11-21T12:21:30;17.95;;;6.43;;
14169;SDS011;63889;50.596;8.690;2023-11-21T12:23:57;13.25;;;6.60;;
14169;SDS011;63889;50.596;8.690;2023-11-21T12:26:26;12.57;;;5.97;;
14169;SDS011;63889;50.596;8.690;2023-11-21T12:28:52;11.32;;;6.18;;
14169;SDS011;63889;50.596;8.690;2023-11-21T12:31:24;14.02;;;5.78;;
14169;SDS011;63889;50.596;8.690;2023-11-21T12:33:49;9.10;;;4.80;;
14169;SDS011;63889;50.596;8.690;2023-11-21T12:36:16;13.10;;;5.30;;
14169;SDS011;63889;50.596;8.690;2023-11-21T12:38:42;13.85;;;5.53;;
14169;SDS011;63889;50.596;8.690;2023-11-21T12:41:11;13.45;;;5.03;;
14169;SDS011;63889;50.596;8.690;2023-11-21T12:43:36;11.75;;;5.40;;
14169;SDS011;63889;50.596;8.690;2023-11-21T12:46:05;13.50;;;5.78;;
14169;SDS011;63889;50.596;8.690;2023-11-21T12:48:32;15.93;;;4.80;;
14169;SDS011;63889;50.596;8.690;2023-11-21T12:50:57;11.80;;;4.88;;
14169;SDS011;63889;50.596;8.690;2023-11-21T12:53:25;12.75;;;5.93;;
14169;SDS011;63889;50.596;8.690;2023-11-21T12:55:51;14.43;;;6.22;;
14169;SDS011;63889;50.596;8.690;2023-11-21T12:58:17;12.85;;;5.28;;
14169;SDS011;63889;50.596;8.690;2023-11-21T13:00:46;12.00;;;5.47;;
14169;SDS011;63889;50.596;8.690;2023-11-21T13:03:13;9.07;;;4.90;;
14169;SDS011;63889;50.596;8.690;2023-11-21T13:05:45;10.20;;;5.35;;
14169;SDS011;63889;50.596;8.690;2023-11-21T13:08:15;11.75;;;5.40;;
14169;SDS011;63889;50.596;8.690;2023-11-21T13:10:44;10.68;;;5.13;;
14169;SDS011;63889;50.596;8.690;2023-11-21T13:13:12;12.73;;;6.15;;
14169;SDS011;63889;50.596;8.690;2023-11-21T13:15:47;13.02;;;5.35;;
14169;SDS011;63889;50.596;8.690;2023-11-21T13:18:13;11.90;;;5.28;;
14169;SDS011;63889;50.596;8.690;2023-11-21T13:20:39;13.27;;;4.93;;
14169;SDS011;63889;50.596;8.690;2023-11-21T13:23:08;13.30;;;5.63;;
14169;SDS011;63889;50.596;8.690;2023-11-21T13:25:37;14.65;;;6.13;;
14169;SDS011;63889;50.596;8.690;2023-11-21T13:28:04;10.68;;;5.70;;
14169;SDS011;63889;50.596;8.690;2023-11-21T13:30:30;14.52;;;5.95;;
14169;SDS011;63889;50.596;8.690;2023-11-21T13:33:02;10.07;;;5.13;;
14169;SDS011;63889;50.596;8.690;2023-11-21T13:35:35;11.02;;;5.55;;
14169;SDS011;63889;50.596;8.690;2023-11-21T13:38:14;14.98;;;4.60;;
14169;SDS011;63889;50.596;8.690;2023-11-21T13:40:48;11.23;;;5.03;;
14169;SDS011;63889;50.596;8.690;2023-11-21T13:43:17;15.40;;;5.15;;
14169;SDS011;63889;50.596;8.690;2023-11-21T13:45:45;10.77;;;5.07;;
14169;SDS011;63889;50.596;8.690;2023-11-21T13:48:12;12.73;;;5.93;;
14169;SDS011;63889;50.596;8.690;2023-11-21T13:50:50;21.08;;;6.43;;
14169;SDS011;63889;50.596;8.690;2023-11-21T13:53:33;16.88;;;6.25;;
14169;SDS011;63889;50.596;8.690;2023-11-21T13:56:01;14.88;;;5.65;;
14169;SDS011;63889;50.596;8.690;2023-11-21T13:58:27;19.05;;;6.13;;
14169;SDS011;63889;50.596;8.690;2023-11-21T14:01:13;19.00;;;6.70;;
14169;SDS011;63889;50.596;8.690;2023-11-21T14:04:10;14.82;;;6.70;;
14169;SDS011;63889;50.596;8.690;2023-11-21T14:06:48;16.85;;;7.00;;
14169;SDS011;63889;50.596;8.690;2023-11-21T14:09:16;13.05;;;5.30;;
14169;SDS011;63889;50.596;8.690;2023-11-21T14:11:54;19.02;;;6.40;;
14169;SDS011;63889;50.596;8.690;2023-11-21T14:14:21;17.55;;;5.72;;
14169;SDS011;63889;50.596;8.690;2023-11-21T14:16:50;11.90;;;5.40;;
14169;SDS011;63889;50.596;8.690;2023-11-21T14:19:16;16.30;;;7.00;;
14169;SDS011;63889;50.596;8.690;2023-11-21T14:21:42;13.32;;;6.30;;
14169;SDS011;63889;50.596;8.690;2023-11-21T14:24:11;15.38;;;6.13;;
14169;SDS011;63889;50.596;8.690;2023-11-21T14:26:43;19.45;;;6.38;;
14169;SDS011;63889;50.596;8.690;2023-11-21T14:29:11;13.13;;;6.30;;
14169;SDS011;63889;50.596;8.690;2023-11-21T14:31:39;15.68;;;6.72;;
14169;SDS011;63889;50.596;8.690;2023-11-21T14:34:05;14.73;;;6.18;;
14169;SDS011;63889;50.596;8.690;2023-11-21T14:36:32;17.20;;;7.05;;
14169;SDS011;63889;50.596;8.690;2023-11-21T14:38:58;12.95;;;6.32;;
14169;SDS011;63889;50.596;8.690;2023-11-21T14:41:24;12.25;;;5.80;;
14169;SDS011;63889;50.596;8.690;2023-11-21T14:43:52;15.60;;;6.65;;
14169;SDS011;63889;50.596;8.690;2023-11-21T14:46:19;14.77;;;5.93;;
14169;SDS011;63889;50.596;8.690;2023-11-21T14:48:45;12.55;;;6.68;;
14169;SDS011;63889;50.596;8.690;2023-11-21T14:51:23;17.08;;;6.90;;
14169;SDS011;63889;50.596;8.690;2023-11-21T14:53:55;16.27;;;7.05;;
14169;SDS011;63889;50.596;8.690;2023-11-21T14:56:34;15.40;;;7.60;;
14169;SDS011;63889;50.596;8.690;2023-11-21T14:59:02;30.92;;;9.23;;